Terminal Aerodrome Forecast
Issued by NWS

Home | Current Version | Previous Version | Text Only | Print | Product List | Glossary On
Versions: 1 2 3 4 5 6 7 8 9 10 11 12
798
FTUS44 KTSA 030535
TAFMLC
TAF
KMLC 030535Z 0306/0406 08004KT P6SM VCSH BKN070
     FM030800 05004KT P6SM -RA OVC045
      TEMPO 0312/0316 4SM -RA BR BKN025
     FM031600 07008KT 4SM -RA BKN012
      TEMPO 0316/0319 2SM -RA BR BKN007
     FM031900 08004KT 2SM -RA BR BKN007=

USA.gov is the U.S. government's official web portal to all federal, state and local government web resources and services.